KBGM/BGM METAR and TAF weather

Enter ICAO airport designator
Station Type Date Time Source
KBGM METAR 2020/01/28 05:16 UTC NOAA

KBGM 280516Z AUTO 32009KT 6SM BR BKN004 OVC008 M02/M03 A2972 RMK AO2 I1000 T10221033 $


Station Type Date Time Source
KBGM Decoded METAR 2020/01/28 05:16 UTC NOAA

BINGHAMTON REGIONAL AIRPORT, NY, United States (KBGM) 42-12N 75-59W 492M
Jan 28, 2020 - 12:16 AM EST / 2020.01.28 0516 UTC
Wind: from the NW (320 degrees) at 10 MPH (9 KT):0
Visibility: 6 mile(s):0
Sky conditions: overcast
Weather: mist
Temperature: 28.0 F (-2.2 C)
Windchill: 19 F (-7 C):1
Dew Point: 26.1 F (-3.3 C)
Relative Humidity: 92%
Pressure (altimeter): 29.72 in. Hg (1006 hPa)
ob: KBGM 280516Z AUTO 32009KT 6SM BR BKN004 OVC008 M02/M03 A2972 RMK AO2 I1000 T10221033
cycle: 5

Station Type Date Time Source
KBGM TAF 2020/01/27 23:54 UTC NOAA

TAF
AMD KBGM 272252Z 2723/2818 32007KT 2SM -SN BR OVC007
TEMPO 2800/2804 6SM -SN BR OVC025
FM280400 31009KT 6SM -SN BR OVC011
FM281500 32008KT P6SM OVC022

Example: see airport list